Impacts TAF Board INFO
FOR SITUATIONAL AWARENESS. NOT TO BE USED FOR FLIGHT PLANNING PURPOSES.
IDs:

KPHL - Philadelphia Intl, PA, US

Issued at 1740 UTC 17 Dec 2017
Updated at 1915 UTC 17 Dec 2017
Potential Impact None Slight Moderate High
Time1854Z 17/20Z 17/21Z 17/22Z 17/23Z 18/00Z 18/01Z 18/02Z 18/03Z 18/04Z 18/05Z 18/06Z 18/07Z 18/08Z>>
Type OBS PRVL PRVL PRVL PRVL PRVL PRVL PRVL PRVL PRVL PRVL PRVL PRVL PRVL
VIS 10 >6 >6 >6 >6 >6 >6 >6 >6 >6 >6 >6 >6 >6
CIG 160 -- -- -- -- -- -- -- -- -- -- -- -- 30
Cover OVC SCT SCT SCT SCT SCT SCT SCT SCT SCT SCT SCT SCT OVC
FltCat VFR VFR VFR VFR VFR VFR VFR VFR VFR VFR VFR VFR VFR MVFR
WX -- -- -- -- -- -- -- -- -- -- -- -- -- --
WDir VRB 50 50 50 50 50 50 50 50 50 50 50 50 VRB
WSpd 0 4 4 4 4 4 4 4 4 4 4 4 4 2
WGst -- -- -- -- -- -- -- -- -- -- -- -- -- --

Raw TAF
KPHL 171740Z 1718/1824 05004KT P6SM SCT170
  FM180800 VRB02KT P6SM OVC030
  FM181200 VRB02KT P6SM BKN035
  FM181800 24005KT P6SM SCT050


Raw METAR
KPHL 171854Z 00000KT 10SM BKN160 BKN210 OVC260 06/M03 A3022 RMK AO2 SLP233 T00611028 $
KPHL 171754Z 00000KT 10SM FEW210 OVC260 06/M02 A3024 RMK AO2 SLP240 T00561022 10061 20000 58017 $
KPHL 171654Z 10004KT 10SM FEW220 BKN260 05/M03 A3027 RMK AO2 SLP249 T00501028 $

METAR Board
Radar Display
Forecast Discussion

FOR SITUATIONAL AWARENESS. NOT TO BE USED FOR FLIGHT PLANNING PURPOSES.